createdAt,value
2022-11-22T00:00:33.842Z,4.61
2022-11-22T00:03:19.038Z,4.60
2022-11-22T00:06:04.026Z,4.57
2022-11-22T00:08:49.213Z,4.56
2022-11-22T00:11:34.213Z,4.53
2022-11-22T00:14:19.153Z,4.53
2022-11-22T00:17:04.514Z,4.54
2022-11-22T00:19:49.534Z,4.36
2022-11-22T00:22:38.500Z,4.56
2022-11-22T00:25:27.740Z,4.53
2022-11-22T00:28:13.058Z,4.48
2022-11-22T00:30:58.103Z,4.36
2022-11-22T00:33:43.135Z,4.43
2022-11-22T00:36:28.326Z,4.45
2022-11-22T00:39:13.276Z,4.38
2022-11-22T00:41:58.337Z,4.35
2022-11-22T00:44:43.344Z,4.31
2022-11-22T00:47:28.850Z,4.27
2022-11-22T00:50:13.991Z,4.30
2022-11-22T00:52:59.306Z,4.32
2022-11-22T00:55:48.150Z,4.23
2022-11-22T00:58:33.012Z,4.31
2022-11-22T01:01:18.373Z,4.28
2022-11-22T01:04:03.638Z,4.31
2022-11-22T01:06:48.877Z,4.28
2022-11-22T01:09:33.849Z,4.27
2022-11-22T01:12:18.979Z,4.26
2022-11-22T01:15:05.570Z,4.13
2022-11-22T01:17:50.532Z,4.21
2022-11-22T01:20:41.495Z,4.21
2022-11-22T01:23:26.822Z,4.28
2022-11-22T01:26:12.654Z,4.27
2022-11-22T01:28:57.722Z,4.23
2022-11-22T01:31:42.843Z,4.23
2022-11-22T01:34:27.839Z,4.22
2022-11-22T01:37:12.857Z,4.19
2022-11-22T01:39:57.827Z,4.16
2022-11-22T01:42:55.623Z,4.19
2022-11-22T01:45:50.195Z,4.15
2022-11-22T01:48:50.933Z,4.14
2022-11-22T01:51:40.300Z,4.14
2022-11-22T01:54:29.585Z,4.10
2022-11-22T01:57:20.028Z,4.09
2022-11-22T02:00:16.771Z,4.09
2022-11-22T02:03:04.953Z,4.04
2022-11-22T02:05:51.074Z,3.99
2022-11-22T02:08:51.893Z,3.97
2022-11-22T02:11:40.056Z,3.98
2022-11-22T02:14:27.363Z,3.84
2022-11-22T02:17:12.404Z,3.71
2022-11-22T02:19:57.946Z,3.94
2022-11-22T02:22:52.647Z,3.96
2022-11-22T02:25:40.552Z,3.91
2022-11-22T02:28:28.734Z,3.88
2022-11-22T02:31:41.307Z,3.84
2022-11-22T02:34:26.474Z,3.84
2022-11-22T02:37:15.863Z,3.74
2022-11-22T02:40:07.586Z,3.87
2022-11-22T02:42:58.699Z,3.87
2022-11-22T02:45:43.696Z,3.83
2022-11-22T02:48:28.774Z,3.80
2022-11-22T02:51:19.694Z,3.71
2022-11-22T02:54:05.513Z,3.82
2022-11-22T02:56:50.680Z,3.82
2022-11-22T02:59:35.705Z,3.80
2022-11-22T03:02:20.976Z,3.83
2022-11-22T03:05:05.989Z,3.76
2022-11-22T03:07:51.300Z,3.74
2022-11-22T03:10:36.912Z,3.86
2022-11-22T03:13:22.319Z,3.86
2022-11-22T03:16:07.525Z,3.90
2022-11-22T03:18:52.350Z,3.84
2022-11-22T03:21:38.334Z,3.94
2022-11-22T03:24:23.531Z,3.94
2022-11-22T03:27:08.580Z,3.94
2022-11-22T03:29:53.392Z,3.94
2022-11-22T03:32:38.429Z,3.94
2022-11-22T03:35:23.364Z,4.02
2022-11-22T03:38:08.492Z,4.07
2022-11-22T03:40:53.793Z,4.13
2022-11-22T03:43:38.959Z,4.16
2022-11-22T03:46:24.268Z,4.18
2022-11-22T03:49:11.847Z,4.18
2022-11-22T03:51:56.975Z,4.27
2022-11-22T03:54:42.003Z,4.30
2022-11-22T03:57:26.870Z,4.34
2022-11-22T04:00:12.645Z,4.32
2022-11-22T04:02:57.975Z,4.36
2022-11-22T04:05:44.955Z,4.36
2022-11-22T04:08:30.312Z,4.40
2022-11-22T04:11:15.393Z,4.26
2022-11-22T04:14:19.266Z,4.41
2022-11-22T04:17:04.441Z,4.42
2022-11-22T04:20:07.837Z,4.35
2022-11-22T04:22:58.025Z,4.42
2022-11-22T04:25:44.065Z,4.44
2022-11-22T04:28:53.962Z,4.47
2022-11-22T04:31:53.093Z,4.50
2022-11-22T04:34:38.412Z,4.50
2022-11-22T04:37:23.824Z,4.50
2022-11-22T04:40:09.819Z,4.48
2022-11-22T04:43:13.212Z,4.49
2022-11-22T04:45:58.485Z,4.50
2022-11-22T04:48:43.447Z,4.49
2022-11-22T04:51:47.331Z,4.47
2022-11-22T04:54:32.475Z,4.34
2022-11-22T04:57:17.449Z,4.32
2022-11-22T05:00:04.025Z,4.23
2022-11-22T05:02:49.176Z,4.39
2022-11-22T05:05:42.954Z,4.33
2022-11-22T05:08:29.203Z,4.22
2022-11-22T05:11:14.665Z,3.97
2022-11-22T05:13:59.767Z,3.90
2022-11-22T05:16:44.788Z,3.77
2022-11-22T05:19:29.841Z,3.80
2022-11-22T05:22:15.203Z,3.64
2022-11-22T05:25:00.367Z,3.68
2022-11-22T05:27:45.381Z,3.63
2022-11-22T05:30:30.453Z,3.51
2022-11-22T05:33:15.701Z,3.66
2022-11-22T05:36:01.876Z,3.72
2022-11-22T05:38:47.479Z,3.73
2022-11-22T05:41:32.634Z,3.73
2022-11-22T05:44:17.880Z,3.70
2022-11-22T05:47:02.733Z,3.60
2022-11-22T05:49:48.004Z,3.64
2022-11-22T05:52:32.977Z,3.79
2022-11-22T05:55:17.962Z,3.85
2022-11-22T05:58:02.909Z,3.78
2022-11-22T06:00:48.331Z,3.88
2022-11-22T06:03:34.546Z,3.95
2022-11-22T06:06:19.887Z,3.95
2022-11-22T06:09:05.341Z,3.79
2022-11-22T06:11:50.497Z,3.89
2022-11-22T06:14:41.597Z,3.89
2022-11-22T06:17:28.532Z,3.95
2022-11-22T06:20:13.863Z,4.01
2022-11-22T06:22:59.490Z,4.03
2022-11-22T06:25:44.865Z,4.06
2022-11-22T06:28:31.007Z,4.07
2022-11-22T06:31:19.514Z,4.12
2022-11-22T06:34:04.845Z,4.09
2022-11-22T06:36:49.845Z,4.03
2022-11-22T06:39:35.661Z,3.97
2022-11-22T06:42:20.549Z,3.93
2022-11-22T06:45:06.305Z,3.92
2022-11-22T06:47:51.572Z,3.85
2022-11-22T06:50:36.760Z,3.70
2022-11-22T06:53:45.822Z,3.71
2022-11-22T06:56:32.584Z,3.56
2022-11-22T06:59:17.822Z,3.64
2022-11-22T07:02:06.351Z,3.64
2022-11-22T07:05:23.200Z,3.68
2022-11-22T07:08:04.592Z,3.66
2022-11-22T07:10:52.174Z,3.68
2022-11-22T07:13:37.944Z,3.72
2022-11-22T07:16:23.320Z,3.67
2022-11-22T07:19:08.424Z,3.62
2022-11-22T07:21:53.567Z,3.57
2022-11-22T07:24:38.607Z,3.47
2022-11-22T07:27:23.881Z,3.45
2022-11-22T07:30:09.672Z,3.44
2022-11-22T07:32:54.632Z,3.38
2022-11-22T07:35:39.645Z,3.30
2022-11-22T07:38:26.459Z,3.06
2022-11-22T07:41:11.747Z,3.21
2022-11-22T07:43:57.103Z,3.14
2022-11-22T07:46:42.608Z,3.23
2022-11-22T07:49:27.827Z,3.23
2022-11-22T07:52:13.121Z,3.23
2022-11-22T07:54:58.138Z,3.21
2022-11-22T07:57:43.408Z,3.23
2022-11-22T08:00:29.003Z,3.19
2022-11-22T08:03:17.611Z,3.18
2022-11-22T08:06:05.597Z,3.19
2022-11-22T08:08:50.796Z,3.09
2022-11-22T08:11:36.205Z,3.30
2022-11-22T08:14:21.479Z,3.40
2022-11-22T08:17:06.651Z,3.24
2022-11-22T08:19:53.473Z,3.38
2022-11-22T08:22:39.636Z,3.36
2022-11-22T08:25:24.807Z,3.20
2022-11-22T08:28:09.818Z,3.41
2022-11-22T08:31:04.304Z,3.47
2022-11-22T08:33:53.435Z,3.52
2022-11-22T08:36:38.487Z,3.59
2022-11-22T08:39:23.747Z,3.52
2022-11-22T08:42:08.933Z,3.72
2022-11-22T08:44:54.289Z,3.81
2022-11-22T08:47:39.596Z,3.75
2022-11-22T08:50:24.519Z,3.96
2022-11-22T08:53:09.997Z,4.15
2022-11-22T08:55:55.434Z,4.16
2022-11-22T08:58:41.206Z,4.46
2022-11-22T09:01:26.323Z,4.60
2022-11-22T09:04:11.246Z,4.72
2022-11-22T09:10:04.239Z,4.90
2022-11-22T09:12:49.266Z,4.82
2022-11-22T09:15:34.634Z,5.07
2022-11-22T09:18:19.894Z,5.07
2022-11-22T09:21:16.476Z,5.22
2022-11-22T09:24:01.508Z,5.34
2022-11-22T09:26:46.718Z,5.31
2022-11-22T09:29:32.015Z,5.39
2022-11-22T09:32:17.233Z,5.43
2022-11-22T09:35:02.513Z,5.62
2022-11-22T09:37:47.712Z,5.74
2022-11-22T09:40:33.100Z,5.83
2022-11-22T09:43:36.502Z,5.87
2022-11-22T09:46:33.508Z,6.03
2022-11-22T09:49:27.629Z,6.01
2022-11-22T09:52:38.427Z,6.21
2022-11-22T09:55:30.799Z,6.29
2022-11-22T09:59:00.704Z,6.39
2022-11-22T10:01:53.238Z,6.48
2022-11-22T10:04:43.266Z,6.58
2022-11-22T10:07:35.498Z,6.71
2022-11-22T10:10:26.816Z,6.70
2022-11-22T10:13:17.193Z,6.83
2022-11-22T10:16:14.716Z,7.00
2022-11-22T10:19:23.808Z,7.09
2022-11-22T10:22:13.020Z,7.21
2022-11-22T10:25:04.140Z,7.30
2022-11-22T10:28:15.223Z,7.34
2022-11-22T10:31:27.069Z,7.43
2022-11-22T10:34:39.854Z,7.55
2022-11-22T10:37:41.059Z,7.66
2022-11-22T10:40:31.436Z,7.76
2022-11-22T10:43:43.091Z,7.82
2022-11-22T10:46:53.662Z,7.95
2022-11-22T10:50:06.142Z,8.04
2022-11-22T10:53:01.233Z,8.11
2022-11-22T10:55:53.502Z,8.23
2022-11-22T10:58:44.135Z,8.32
2022-11-22T11:01:41.594Z,8.39
2022-11-22T11:04:34.320Z,8.47
2022-11-22T11:07:23.544Z,8.54
2022-11-22T11:10:26.291Z,8.58
2022-11-22T11:13:23.366Z,8.41
2022-11-22T11:16:12.526Z,8.48
2022-11-22T11:19:18.085Z,8.58
2022-11-22T11:22:09.538Z,8.58
2022-11-22T11:24:54.414Z,8.58
2022-11-22T11:27:42.467Z,8.61
2022-11-22T11:30:27.702Z,8.72
2022-11-22T11:33:32.439Z,8.90
2022-11-22T11:36:23.396Z,9.07
2022-11-22T11:39:20.526Z,9.16
2022-11-22T11:42:24.097Z,9.27
2022-11-22T11:45:33.002Z,9.21
2022-11-22T11:48:41.154Z,9.20
2022-11-22T11:51:37.136Z,9.19
2022-11-22T11:54:40.812Z,9.42
2022-11-22T11:57:30.611Z,9.41
2022-11-22T12:00:20.295Z,9.50
2022-11-22T12:03:07.560Z,9.63
2022-11-22T12:06:11.981Z,9.70
2022-11-22T12:08:58.384Z,9.68
2022-11-22T12:11:49.007Z,9.74
2022-11-22T12:15:03.388Z,9.84
2022-11-22T12:17:49.478Z,9.81
2022-11-22T12:20:48.756Z,9.62
2022-11-22T12:23:50.758Z,9.67
2022-11-22T12:26:36.376Z,9.66
2022-11-22T12:29:21.993Z,9.67
2022-11-22T12:32:27.250Z,9.80
2022-11-22T12:35:20.334Z,9.87
2022-11-22T12:38:14.273Z,9.88
2022-11-22T12:41:04.659Z,10.12
2022-11-22T12:44:05.940Z,10.10
2022-11-22T12:47:05.321Z,10.21
2022-11-22T12:49:56.659Z,9.96
2022-11-22T12:52:52.896Z,9.71
2022-11-22T12:55:47.649Z,9.71
2022-11-22T12:58:50.051Z,9.69
2022-11-22T13:02:12.125Z,9.79
2022-11-22T13:05:13.436Z,10.13
2022-11-22T13:08:16.631Z,10.46
2022-11-22T13:11:16.359Z,10.31
2022-11-22T13:14:20.562Z,10.36
2022-11-22T13:17:11.170Z,10.46
2022-11-22T13:19:59.097Z,10.54
2022-11-22T13:23:02.135Z,10.51
2022-11-22T13:25:58.343Z,10.42
2022-11-22T13:28:44.970Z,10.39
2022-11-22T13:31:30.539Z,10.42
2022-11-22T13:34:26.113Z,10.44
2022-11-22T13:37:14.929Z,10.45
2022-11-22T13:40:09.975Z,10.21
2022-11-22T13:43:17.868Z,10.17
2022-11-22T13:46:45.295Z,10.17
2022-11-22T13:49:48.242Z,10.06
2022-11-22T13:52:51.973Z,10.00
2022-11-22T13:55:42.403Z,9.96
2022-11-22T13:58:27.912Z,10.05
2022-11-22T14:01:34.905Z,10.18
2022-11-22T14:04:41.856Z,10.17
2022-11-22T14:07:34.169Z,10.00
2022-11-22T14:10:44.493Z,10.16
2022-11-22T14:13:41.324Z,10.09
2022-11-22T14:16:53.360Z,10.07
2022-11-22T14:19:56.811Z,10.08
2022-11-22T14:22:55.426Z,10.05
2022-11-22T14:26:02.829Z,10.10
2022-11-22T14:29:12.348Z,10.07
2022-11-22T14:32:04.143Z,9.97
2022-11-22T14:35:04.394Z,10.03
2022-11-22T14:38:07.967Z,10.00
2022-11-22T14:41:13.212Z,9.97
2022-11-22T14:44:13.067Z,9.93
2022-11-22T14:47:04.566Z,9.85
2022-11-22T14:49:51.007Z,9.76
2022-11-22T14:52:36.820Z,9.87
2022-11-22T14:55:27.553Z,9.82
2022-11-22T14:58:19.877Z,9.84
2022-11-22T15:01:42.449Z,9.78
2022-11-22T15:09:14.768Z,9.72
2022-11-22T15:09:20.788Z,9.65
2022-11-22T15:11:31.997Z,9.65
2022-11-22T15:14:49.353Z,9.66
2022-11-22T15:59:24.273Z,9.05
2022-11-22T16:02:16.281Z,8.91
2022-11-22T16:06:05.425Z,8.91
2022-11-22T16:08:14.357Z,8.85
2022-11-22T16:11:00.467Z,8.82
2022-11-22T16:13:45.400Z,8.82
2022-11-22T16:16:33.362Z,8.84
2022-11-22T16:19:25.581Z,8.84
2022-11-22T16:22:28.705Z,8.84
2022-11-22T16:25:32.457Z,8.86
2022-11-22T16:28:30.996Z,8.85
2022-11-22T16:31:18.023Z,8.83
2022-11-22T16:34:03.050Z,8.81
2022-11-22T16:36:48.275Z,8.74
2022-11-22T16:39:33.972Z,8.78
2022-11-22T16:42:19.565Z,8.74
2022-11-22T16:45:06.579Z,8.74
2022-11-22T16:48:03.819Z,8.69
2022-11-22T16:51:05.409Z,8.69
2022-11-22T16:53:53.027Z,8.66
2022-11-22T16:56:38.106Z,8.64
2022-11-22T16:59:23.077Z,8.66
2022-11-22T17:02:13.146Z,8.61
2022-11-22T17:04:58.086Z,8.55
2022-11-22T17:07:43.047Z,8.50
2022-11-22T17:10:28.226Z,9.13
2022-11-22T17:13:17.370Z,8.93
2022-11-22T17:16:02.563Z,8.63
2022-11-22T17:18:48.482Z,8.46
2022-11-22T17:21:37.623Z,8.34
2022-11-22T17:24:23.895Z,8.20
2022-11-22T17:27:13.846Z,8.03
2022-11-22T17:29:59.178Z,8.02
2022-11-22T17:32:44.250Z,7.91
2022-11-22T17:35:34.464Z,7.93
2022-11-22T17:38:22.128Z,7.80
2022-11-22T17:41:07.122Z,7.85
2022-11-22T17:43:52.306Z,7.67
2022-11-22T17:46:38.280Z,7.71
2022-11-22T17:49:23.178Z,7.66
2022-11-22T17:52:08.189Z,7.60
2022-11-22T17:54:53.310Z,7.41
2022-11-22T17:57:40.534Z,7.35
2022-11-22T18:00:29.872Z,7.34
2022-11-22T18:03:15.153Z,7.40
2022-11-22T18:06:01.626Z,7.31
2022-11-22T18:08:47.441Z,7.29
2022-11-22T18:11:33.220Z,7.26
2022-11-22T18:14:18.334Z,7.13
2022-11-22T18:17:03.444Z,8.77
2022-11-22T18:19:48.614Z,8.21
2022-11-22T18:22:34.269Z,7.88
2022-11-22T18:25:20.122Z,7.67
2022-11-22T18:28:05.406Z,7.82
2022-11-22T18:30:50.696Z,7.77
2022-11-22T18:33:35.997Z,7.45
2022-11-22T18:36:54.079Z,7.25
2022-11-22T18:39:36.312Z,7.03
2022-11-22T18:42:23.443Z,6.99
2022-11-22T18:45:09.438Z,7.20
2022-11-22T18:47:54.544Z,6.85
2022-11-22T18:50:39.609Z,6.77
2022-11-22T18:53:24.853Z,6.70
2022-11-22T18:56:12.897Z,6.50
2022-11-22T18:58:58.050Z,6.31
2022-11-22T19:01:43.255Z,6.53
2022-11-22T19:04:28.940Z,6.39
2022-11-22T19:07:14.732Z,6.24
2022-11-22T19:10:01.299Z,6.40
2022-11-22T19:12:46.447Z,6.39
2022-11-22T19:15:32.171Z,6.27
2022-11-22T19:18:19.482Z,6.28
2022-11-22T19:21:06.244Z,6.25
2022-11-22T19:23:51.430Z,6.08
2022-11-22T19:26:36.580Z,5.91
2022-11-22T19:29:21.989Z,5.83
2022-11-22T19:32:06.996Z,5.82
2022-11-22T19:34:52.311Z,5.71
2022-11-22T19:37:37.724Z,5.63
2022-11-22T19:40:22.799Z,5.64
2022-11-22T19:43:12.209Z,5.47
2022-11-22T19:46:01.390Z,5.51
2022-11-22T19:48:51.561Z,5.96
2022-11-22T19:51:36.970Z,5.79
2022-11-22T19:54:22.119Z,5.51
2022-11-22T19:57:07.303Z,5.56
2022-11-22T19:59:55.859Z,5.64
2022-11-22T20:02:45.021Z,5.84
2022-11-22T20:05:32.133Z,5.95
2022-11-22T20:08:17.259Z,5.67
2022-11-22T20:11:11.006Z,5.18
2022-11-22T20:13:56.293Z,5.26
2022-11-22T20:16:41.768Z,5.24
2022-11-22T20:19:32.663Z,5.31
2022-11-22T20:22:19.165Z,5.23
2022-11-22T20:25:05.814Z,5.12
2022-11-22T20:27:51.103Z,5.01
2022-11-22T20:30:36.172Z,4.95
2022-11-22T20:33:21.455Z,4.86
2022-11-22T20:36:21.792Z,4.93
2022-11-22T20:39:12.429Z,4.85
2022-11-22T20:42:31.981Z,4.88
2022-11-22T20:45:08.417Z,4.82
2022-11-22T20:47:53.402Z,4.67
2022-11-22T20:50:38.394Z,4.54
2022-11-22T20:53:24.335Z,4.36
2022-11-22T20:56:10.311Z,4.51
2022-11-22T20:58:55.717Z,4.54
2022-11-22T21:01:43.401Z,4.54
2022-11-22T21:04:28.490Z,4.51
2022-11-22T21:07:13.878Z,4.48
2022-11-22T21:09:58.665Z,4.26
2022-11-22T21:12:43.684Z,4.07
2022-11-22T21:15:28.841Z,4.03
2022-11-22T21:18:29.897Z,4.12
2022-11-22T21:21:14.819Z,4.18
2022-11-22T21:24:01.701Z,4.13
2022-11-22T21:26:46.803Z,4.10
2022-11-22T21:29:31.928Z,4.25
2022-11-22T21:32:17.525Z,4.34
2022-11-22T21:35:02.542Z,4.38
2022-11-22T21:37:47.410Z,4.37
2022-11-22T21:40:32.389Z,4.28
2022-11-22T21:43:17.691Z,4.24
2022-11-22T21:46:02.969Z,4.07
2022-11-22T21:48:49.638Z,4.01
2022-11-22T21:51:34.555Z,4.04
2022-11-22T21:54:19.411Z,4.18
2022-11-22T21:57:04.310Z,4.11
2022-11-22T21:59:49.331Z,3.94
2022-11-22T22:02:35.377Z,4.09
2022-11-22T22:05:20.550Z,4.16
2022-11-22T22:08:06.266Z,4.03
2022-11-22T22:10:52.099Z,4.00
2022-11-22T22:13:37.315Z,3.84
2022-11-22T22:16:23.875Z,3.75
2022-11-22T22:19:10.126Z,3.68
2022-11-22T22:21:55.327Z,3.65
2022-11-22T22:24:40.533Z,3.53
2022-11-22T22:27:25.707Z,3.62
2022-11-22T22:30:11.737Z,3.58
2022-11-22T22:32:58.167Z,3.58
2022-11-22T22:35:43.271Z,3.48
2022-11-22T22:38:30.853Z,3.48
2022-11-22T22:41:16.934Z,3.39
2022-11-22T22:44:01.960Z,3.64
2022-11-22T22:46:47.266Z,3.66
2022-11-22T22:49:32.746Z,3.45
2022-11-22T22:52:18.087Z,3.39
2022-11-22T22:55:03.095Z,3.23
2022-11-22T22:57:48.136Z,3.27
2022-11-22T23:00:33.005Z,3.16
2022-11-22T23:03:18.058Z,3.14
2022-11-22T23:06:07.709Z,3.16
2022-11-22T23:08:54.381Z,3.13
2022-11-22T23:11:58.564Z,3.07
2022-11-22T23:14:43.697Z,3.03
2022-11-22T23:17:28.727Z,2.99
2022-11-22T23:20:14.233Z,2.98
2022-11-22T23:22:59.370Z,3.07
2022-11-22T23:25:44.499Z,3.08
2022-11-22T23:28:30.115Z,2.91
2022-11-22T23:31:15.892Z,3.06
2022-11-22T23:34:01.681Z,3.07
2022-11-22T23:36:46.863Z,3.01
2022-11-22T23:39:32.516Z,3.00
2022-11-22T23:42:17.682Z,2.77
2022-11-22T23:45:02.712Z,2.81
2022-11-22T23:47:50.821Z,2.88
2022-11-22T23:50:37.504Z,2.93
2022-11-22T23:53:22.775Z,3.01
2022-11-22T23:56:15.086Z,2.96
2022-11-22T23:59:05.586Z,2.74
